Time;durP1;ratioP1;P1;durP2;ratioP2;P2;SDS_P1;SDS_P2;PMS_P1;PMS_P2;Temp;Humidity;BMP_temperature;BMP_pressure;BME280_temperature;BME280_humidity;BME280_pressure;Samples;Min_cycle;Max_cycle;Signal;HPM_P1;HPM_P2
2023/10/30 00:01:36;;;;;;;0.10;0.10;;;;;;;12.72;75.46;101586.78;5039334;28;20025;-90
2023/10/30 00:04:01;;;;;;;0.10;0.10;;;;;;;12.81;75.61;101586.41;5022808;28;20040;-90
2023/10/30 00:06:27;;;;;;;0.10;0.10;;;;;;;12.76;75.33;101569.31;5022645;28;20024;-91
2023/10/30 00:08:52;;;;;;;0.10;0.10;;;;;;;12.77;75.18;101579.63;5039226;28;20044;-91
2023/10/30 00:11:18;;;;;;;0.10;0.10;;;;;;;12.80;75.23;101579.53;5039399;28;20052;-90
2023/10/30 00:13:43;;;;;;;0.10;0.10;;;;;;;12.82;75.50;101585.47;5038894;28;20056;-91
2023/10/30 00:16:10;;;;;;;0.10;0.10;;;;;;;12.79;75.16;101572.63;5055445;28;20074;-92
2023/10/30 00:18:36;;;;;;;0.10;0.10;;;;;;;12.76;75.43;101583.13;5022883;28;20489;-91
2023/10/30 00:21:01;;;;;;;0.10;0.10;;;;;;;12.68;75.86;101585.22;5038565;28;20048;-90
2023/10/30 00:23:28;;;;;;;0.10;0.10;;;;;;;12.71;75.57;101590.28;5038966;28;20103;-91
2023/10/30 00:25:55;;;;;;;0.10;0.10;;;;;;;12.59;76.12;101590.81;5039558;28;20034;-91
2023/10/30 00:28:20;;;;;;;0.10;0.10;;;;;;;12.57;75.84;101592.59;5039052;28;20033;-91
2023/10/30 00:30:46;;;;;;;0.10;0.10;;;;;;;12.50;75.34;101586.84;5038834;28;20085;-90
2023/10/30 00:33:11;;;;;;;0.10;0.10;;;;;;;12.58;75.38;101596.88;5038664;28;20028;-90
2023/10/30 00:35:37;;;;;;;0.10;0.10;;;;;;;12.57;75.12;101598.63;5038470;28;20035;-91
2023/10/30 00:38:02;;;;;;;0.10;0.10;;;;;;;12.54;75.44;101605.72;5038714;28;20551;-91
2023/10/30 00:40:27;;;;;;;0.10;0.10;;;;;;;12.41;75.98;101591.56;5021748;28;20029;-90
2023/10/30 00:42:53;;;;;;;0.10;0.10;;;;;;;12.37;76.05;101597.78;5038592;28;20059;-90
2023/10/30 00:45:18;;;;;;;0.10;0.10;;;;;;;12.32;76.50;101583.25;5038385;28;20035;-90
2023/10/30 00:47:44;;;;;;;0.10;0.10;;;;;;;12.33;76.67;101599.66;5038348;28;20020;-91
2023/10/30 00:50:09;;;;;;;0.10;0.10;;;;;;;12.41;76.28;101586.38;5038289;28;20028;-90
2023/10/30 00:52:35;;;;;;;0.10;0.10;;;;;;;12.41;76.31;101584.63;5038117;28;20029;-91
2023/10/30 00:55:00;;;;;;;0.10;0.10;;;;;;;12.31;76.33;101576.38;5038383;28;20040;-90
2023/10/30 00:57:26;;;;;;;0.10;0.10;;;;;;;12.38;76.34;101582.16;5038347;28;20509;-90
2023/10/30 00:59:51;;;;;;;0.10;0.10;;;;;;;12.42;75.63;101578.53;5021848;28;20414;-90
2023/10/30 01:02:17;;;;;;;0.10;0.10;;;;;;;12.42;75.81;101578.53;5054689;28;20028;-90
2023/10/30 01:04:42;;;;;;;0.10;0.10;;;;;;;12.52;75.49;101579.00;5037714;28;20032;-90
2023/10/30 01:07:08;;;;;;;0.20;0.20;;;;;;;12.42;75.78;101568.16;5038125;28;20025;-91
2023/10/30 01:09:33;;;;;;;0.13;0.13;;;;;;;12.34;75.83;101576.25;5037607;28;20040;-90
2023/10/30 01:11:58;;;;;;;0.10;0.10;;;;;;;12.42;75.76;101577.69;5038058;28;20039;-90
2023/10/30 01:14:25;;;;;;;0.10;0.10;;;;;;;12.41;75.79;101576.00;5054334;28;20045;-90
2023/10/30 01:16:50;;;;;;;0.10;0.10;;;;;;;12.37;75.88;101584.81;5037920;28;20088;-91
2023/10/30 01:19:16;;;;;;;0.10;0.10;;;;;;;12.34;74.87;101575.41;5037643;28;20081;-90
2023/10/30 01:21:41;;;;;;;0.10;0.10;;;;;;;12.29;75.70;101572.13;5037842;28;20402;-90
2023/10/30 01:24:08;;;;;;;0.20;0.20;;;;;;;12.20;76.24;101556.97;5037841;28;20380;-92
2023/10/30 01:26:33;;;;;;;0.10;0.10;;;;;;;12.28;75.84;101573.88;5037851;28;20032;-90
2023/10/30 01:28:59;;;;;;;0.10;0.10;;;;;;;12.26;75.74;101567.94;5037421;28;20043;-90
2023/10/30 01:31:27;;;;;;;0.10;0.10;;;;;;;12.37;75.33;101577.03;5037787;28;20067;-90
2023/10/30 01:33:56;;;;;;;0.10;0.10;;;;;;;12.10;76.15;101574.66;5037182;28;20032;-91
2023/10/30 01:36:22;;;;;;;0.20;0.20;;;;;;;12.10;76.30;101573.81;5021037;28;20478;-90
2023/10/30 01:38:47;;;;;;;0.10;0.10;;;;;;;12.19;75.40;101574.28;5037583;28;20040;-92
2023/10/30 01:41:13;;;;;;;0.10;0.10;;;;;;;12.22;75.46;101576.75;5037737;28;20762;-92
2023/10/30 01:43:38;;;;;;;0.10;0.10;;;;;;;12.20;75.27;101578.56;5037376;28;20043;-91
2023/10/30 01:46:05;;;;;;;0.10;0.10;;;;;;;12.15;75.14;101579.66;5037252;28;20032;-90
2023/10/30 01:48:32;;;;;;;0.10;0.10;;;;;;;12.15;75.21;101585.69;5021031;28;20025;-93
2023/10/30 01:50:59;;;;;;;0.20;0.20;;;;;;;12.13;75.07;101586.66;5037371;28;20028;-90
2023/10/30 01:53:24;;;;;;;0.20;0.20;;;;;;;12.02;75.93;101590.53;5020885;28;20078;-92
2023/10/30 01:55:50;;;;;;;0.10;0.10;;;;;;;12.03;75.74;101579.25;5037592;28;20032;-90
2023/10/30 01:58:15;;;;;;;0.10;0.10;;;;;;;11.99;75.77;101589.78;5037175;28;20033;-91
2023/10/30 02:00:41;;;;;;;0.10;0.10;;;;;;;11.99;75.65;101594.97;5037171;28;20033;-90
2023/10/30 02:03:07;;;;;;;0.10;0.10;;;;;;;11.95;75.88;101588.22;5037140;28;20031;-91
2023/10/30 02:05:32;;;;;;;0.10;0.10;;;;;;;11.90;75.63;101585.00;5020837;28;20028;-90
2023/10/30 02:07:58;;;;;;;0.13;0.13;;;;;;;11.93;75.03;101584.84;5020697;28;20056;-90
2023/10/30 02:10:23;;;;;;;0.20;0.20;;;;;;;11.88;75.81;101591.94;5037132;28;20494;-90
2023/10/30 02:12:50;;;;;;;0.10;0.10;;;;;;;11.92;75.77;101585.75;5036933;28;20052;-90
2023/10/30 02:15:17;;;;;;;0.20;0.20;;;;;;;11.82;75.92;101580.09;5036638;28;20056;-90
2023/10/30 02:17:43;;;;;;;0.10;0.10;;;;;;;11.85;75.69;101589.50;5020052;28;20044;-90
2023/10/30 02:20:08;;;;;;;0.10;0.10;;;;;;;11.73;75.86;101593.38;5020721;28;20028;-91
2023/10/30 02:22:34;;;;;;;0.10;0.10;;;;;;;11.70;76.07;101599.53;5036831;28;20430;-92
2023/10/30 02:24:59;;;;;;;0.10;0.10;;;;;;;11.71;76.19;101593.44;5036965;28;20031;-90
2023/10/30 02:27:25;;;;;;;0.10;0.10;;;;;;;11.71;75.87;101603.81;5036985;28;20024;-90
2023/10/30 02:29:50;;;;;;;0.20;0.20;;;;;;;11.67;76.35;101604.81;5036807;28;20083;-90
2023/10/30 02:32:16;;;;;;;0.10;0.10;;;;;;;11.64;76.22;101604.94;5036529;28;20036;-90
2023/10/30 02:34:41;;;;;;;0.10;0.10;;;;;;;11.58;76.03;101599.97;5036820;28;20039;-90
2023/10/30 02:37:07;;;;;;;0.10;0.10;;;;;;;11.68;75.95;101606.50;5036644;28;20025;-91
2023/10/30 02:39:33;;;;;;;0.10;0.10;;;;;;;11.66;76.00;101597.94;5036812;28;20035;-90
2023/10/30 02:41:59;;;;;;;0.10;0.10;;;;;;;11.58;75.42;101592.19;5037098;28;20111;-90
2023/10/30 02:44:25;;;;;;;0.10;0.10;;;;;;;11.61;75.86;101599.88;5022111;28;20059;-90
2023/10/30 02:46:50;;;;;;;0.10;0.10;;;;;;;11.54;76.54;101588.03;5040578;28;20021;-90
2023/10/30 02:49:16;;;;;;;0.10;0.10;;;;;;;11.55;76.75;101587.13;5040490;28;20038;-90
2023/10/30 02:51:41;;;;;;;0.10;0.10;;;;;;;11.65;76.40;101596.25;5024093;28;20029;-90
2023/10/30 02:54:07;;;;;;;0.20;0.20;;;;;;;11.56;76.75;101575.88;5023925;28;20478;-90
2023/10/30 02:56:32;;;;;;;0.13;0.13;;;;;;;11.47;76.89;101579.63;5074777;28;20101;-90
2023/10/30 02:58:59;;;;;;;0.10;0.10;;;;;;;11.60;76.83;101594.72;5023935;28;20029;-91
2023/10/30 03:01:26;;;;;;;0.20;0.20;;;;;;;11.61;76.69;101586.06;5040403;28;20028;-90
2023/10/30 03:03:51;;;;;;;0.10;0.10;;;;;;;11.64;76.22;101578.16;5024218;28;20101;-91
2023/10/30 03:06:17;;;;;;;0.20;0.20;;;;;;;11.68;75.85;101600.47;5023913;28;20029;-91
2023/10/30 03:08:42;;;;;;;0.10;0.10;;;;;;;11.60;75.99;101598.19;5040425;28;20025;-90
2023/10/30 03:11:08;;;;;;;0.10;0.10;;;;;;;11.58;76.20;101587.00;5023714;28;20044;-90
2023/10/30 03:13:33;;;;;;;0.10;0.10;;;;;;;11.51;76.12;101577.81;5039918;28;20045;-89
2023/10/30 03:15:59;;;;;;;0.10;0.10;;;;;;;11.65;76.14;101596.25;5040169;28;20040;-90
2023/10/30 03:18:24;;;;;;;0.10;0.10;;;;;;;11.57;76.58;101607.81;5023692;28;20058;-90
2023/10/30 03:20:50;;;;;;;0.10;0.10;;;;;;;11.57;76.49;101605.22;5040218;28;20082;-90
2023/10/30 03:23:15;;;;;;;0.10;0.10;;;;;;;11.58;75.90;101605.16;5040190;28;20059;-90
2023/10/30 03:25:42;;;;;;;0.10;0.10;;;;;;;11.47;76.29;101600.38;5039940;28;20121;-90
2023/10/30 03:28:07;;;;;;;0.20;0.20;;;;;;;11.35;76.47;101592.22;5056698;28;20154;-89
2023/10/30 03:30:36;;;;;;;0.10;0.10;;;;;;;11.33;76.40;101602.63;5039313;28;20029;-90
2023/10/30 03:33:03;;;;;;;0.10;0.10;;;;;;;11.30;76.42;101599.28;5039618;28;20028;-91
2023/10/30 03:35:28;;;;;;;0.10;0.10;;;;;;;11.26;76.24;101590.81;5023282;28;20036;-90
2023/10/30 03:37:53;;;;;;;0.10;0.10;;;;;;;11.25;76.24;101602.06;5023133;28;20025;-91
2023/10/30 03:40:19;;;;;;;0.10;0.10;;;;;;;11.06;76.54;101565.63;5039770;28;20058;-90
2023/10/30 03:42:44;;;;;;;0.20;0.20;;;;;;;11.28;75.89;101601.09;5056014;28;20046;-89
2023/10/30 03:45:10;;;;;;;0.10;0.10;;;;;;;11.06;76.38;101575.97;5039346;28;20028;-89
2023/10/30 03:47:35;;;;;;;0.10;0.10;;;;;;;11.23;76.00;101598.69;5022759;28;20051;-87
2023/10/30 03:50:01;;;;;;;0.10;0.10;;;;;;;11.24;76.42;101604.72;5055435;28;20378;-88
2023/10/30 03:52:26;;;;;;;0.10;0.10;;;;;;;11.25;75.94;101606.41;5038846;28;20035;-88
2023/10/30 03:54:52;;;;;;;0.10;0.10;;;;;;;11.16;76.37;101599.81;5038435;28;20035;-87
2023/10/30 03:57:17;;;;;;;0.10;0.10;;;;;;;11.23;75.93;101603.03;5021473;28;20037;-88
2023/10/30 03:59:43;;;;;;;0.10;0.10;;;;;;;11.13;75.14;101576.63;5038293;28;20025;-88
2023/10/30 04:02:09;;;;;;;0.10;0.10;;;;;;;11.33;75.25;101609.56;5054967;28;20024;-88
2023/10/30 04:04:35;;;;;;;0.10;0.10;;;;;;;11.23;74.82;101603.03;5038789;28;20074;-88
2023/10/30 04:07:02;;;;;;;0.20;0.20;;;;;;;11.13;74.27;101603.34;5055221;28;20135;-88
2023/10/30 04:09:28;;;;;;;0.10;0.10;;;;;;;11.09;74.86;101604.34;5038993;28;20036;-88
2023/10/30 04:11:54;;;;;;;0.10;0.10;;;;;;;11.12;74.56;101596.50;5038254;28;20024;-88
2023/10/30 04:14:19;;;;;;;0.17;0.17;;;;;;;11.08;74.71;101605.25;5072025;28;20158;-88
2023/10/30 04:16:45;;;;;;;0.17;0.17;;;;;;;11.01;75.02;101601.22;5037887;28;20021;-88
2023/10/30 04:19:10;;;;;;;0.10;0.10;;;;;;;11.01;74.96;101598.63;5035189;28;20036;-90
2023/10/30 04:21:36;;;;;;;0.20;0.20;;;;;;;11.09;74.61;101611.28;5039400;28;20025;-92
2023/10/30 04:24:01;;;;;;;0.10;0.10;;;;;;;10.76;75.09;101588.25;5039231;28;20029;-91
2023/10/30 04:26:27;;;;;;;0.10;0.10;;;;;;;10.78;75.54;101606.31;5039059;28;20025;-92
2023/10/30 04:28:52;;;;;;;0.10;0.10;;;;;;;10.69;76.32;101614.38;5039173;28;20417;-91
2023/10/30 04:31:18;;;;;;;0.10;0.10;;;;;;;10.78;75.95;101624.44;5039241;28;20053;-91
2023/10/30 04:33:43;;;;;;;0.10;0.10;;;;;;;10.63;76.25;101626.66;5038914;28;20486;-91
2023/10/30 04:36:09;;;;;;;0.10;0.10;;;;;;;10.62;75.61;101612.03;5039189;28;20028;-90
2023/10/30 04:38:34;;;;;;;0.10;0.10;;;;;;;10.48;76.19;101609.03;5022522;28;20029;-92
2023/10/30 04:41:04;;;;;;;0.10;0.10;;;;;;;10.54;75.73;101616.59;5039024;28;20066;-90
2023/10/30 04:43:33;;;;;;;0.10;0.10;;;;;;;10.57;75.27;101613.91;5022157;28;20032;-90
2023/10/30 04:45:58;;;;;;;0.10;0.10;;;;;;;10.48;75.62;101627.16;5039033;28;20420;-90
2023/10/30 04:48:24;;;;;;;0.10;0.10;;;;;;;10.41;75.78;101633.41;5038665;28;20029;-93
2023/10/30 04:50:49;;;;;;;0.10;0.10;;;;;;;10.40;76.35;101641.22;5038871;28;20024;-92
2023/10/30 04:53:15;;;;;;;0.10;0.10;;;;;;;10.36;76.53;101634.47;5038974;28;20024;-88
2023/10/30 04:55:40;;;;;;;0.20;0.20;;;;;;;10.41;76.30;101640.31;5056313;28;20406;-94
2023/10/30 04:58:06;;;;;;;0.10;0.10;;;;;;;10.31;75.95;101632.00;5024465;28;20025;-93
2023/10/30 05:00:32;;;;;;;0.10;0.10;;;;;;;10.31;76.68;101639.75;5023887;28;20040;-90
2023/10/30 05:02:57;;;;;;;0.10;0.10;;;;;;;10.38;76.70;101649.03;5021857;28;20482;-90
2023/10/30 05:05:23;;;;;;;0.20;0.20;;;;;;;10.47;76.50;101650.47;5021498;28;20025;-90
2023/10/30 05:07:48;;;;;;;0.20;0.20;;;;;;;10.33;77.15;101650.94;5036361;28;20410;-89
2023/10/30 05:10:14;;;;;;;0.13;0.13;;;;;;;10.27;76.29;101649.38;5037430;28;20025;-88
2023/10/30 05:12:39;;;;;;;0.10;0.10;;;;;;;10.34;75.93;101665.56;5024269;28;20036;-88
2023/10/30 05:15:08;;;;;;;0.10;0.10;;;;;;;10.37;75.45;101673.22;5038595;28;20063;-91
2023/10/30 05:17:37;;;;;;;0.10;0.10;;;;;;;10.18;75.81;101661.72;5021771;28;20028;-93
2023/10/30 05:20:03;;;;;;;0.10;0.10;;;;;;;10.24;75.66;101656.38;5045567;22;20417;-93
2023/10/30 05:22:28;;;;;;;0.10;0.10;;;;;;;10.34;75.89;101662.97;5016148;28;20033;-95
2023/10/30 05:24:54;;;;;;;0.10;0.10;;;;;;;10.36;75.69;101666.34;4979274;28;20038;-92
2023/10/30 05:27:19;;;;;;;0.10;0.10;;;;;;;10.33;75.91;101676.81;4977332;28;20030;-90
2023/10/30 05:29:45;;;;;;;0.10;0.10;;;;;;;10.32;76.24;101669.91;4994219;28;20064;-91
2023/10/30 05:32:10;;;;;;;0.10;0.10;;;;;;;10.39;75.89;101671.41;4979311;28;20415;-85
2023/10/30 05:34:36;;;;;;;0.10;0.10;;;;;;;10.50;76.01;101677.09;4993046;28;20033;-84
2023/10/30 05:37:06;;;;;;;0.10;0.10;;;;;;;10.47;76.13;101677.19;4977381;28;20547;-87
2023/10/30 05:39:31;;;;;;;0.10;0.10;;;;;;;10.46;76.42;101683.28;4984246;28;20026;-93
2023/10/30 05:41:58;;;;;;;0.10;0.10;;;;;;;10.48;76.71;101671.13;4994189;28;20510;-87
2023/10/30 05:44:24;;;;;;;0.10;0.10;;;;;;;10.44;76.93;101666.13;4978563;28;20022;-85
2023/10/30 05:46:49;;;;;;;0.10;0.10;;;;;;;10.66;76.11;101690.41;4993485;28;20036;-86
2023/10/30 05:49:15;;;;;;;0.10;0.10;;;;;;;10.64;76.14;101661.13;4977138;28;20042;-85
2023/10/30 05:51:40;;;;;;;0.10;0.10;;;;;;;10.77;76.61;101677.09;4978048;28;20026;-90
2023/10/30 05:54:06;;;;;;;0.10;0.10;;;;;;;10.79;76.20;101659.78;4962879;28;20407;-89
2023/10/30 05:56:31;;;;;;;0.13;0.13;;;;;;;10.92;75.70;101679.19;4969005;28;20029;-89
2023/10/30 05:58:57;;;;;;;0.10;0.10;;;;;;;10.96;76.23;101672.16;4971752;28;20046;-92
2023/10/30 06:01:22;;;;;;;0.10;0.10;;;;;;;11.03;76.13;101666.72;4962740;28;20046;-89
2023/10/30 06:03:48;;;;;;;0.10;0.10;;;;;;;11.13;75.60;101670.69;5009945;28;20518;-90
2023/10/30 06:06:14;;;;;;;0.10;0.10;;;;;;;11.21;75.04;101678.19;4979534;28;20034;-89
2023/10/30 06:08:39;;;;;;;0.20;0.20;;;;;;;11.29;75.05;101686.53;4959508;28;20057;-89
2023/10/30 06:11:04;;;;;;;0.10;0.10;;;;;;;11.28;75.60;101684.84;4958873;28;20036;-89
2023/10/30 06:13:30;;;;;;;0.10;0.10;;;;;;;11.25;75.78;101664.22;5003284;28;20042;-87
2023/10/30 06:15:55;;;;;;;0.10;0.10;;;;;;;11.37;75.09;101673.31;4996112;28;20480;-85
2023/10/30 06:18:21;;;;;;;0.20;0.20;;;;;;;11.40;75.34;101678.38;4992569;28;20042;-90
2023/10/30 06:20:46;;;;;;;0.20;0.20;;;;;;;11.50;75.74;101695.28;4993840;28;20048;-90
2023/10/30 06:23:12;;;;;;;0.20;0.20;;;;;;;11.55;75.57;101683.03;4992740;28;20095;-88
2023/10/30 06:25:38;;;;;;;0.20;0.20;;;;;;;11.61;75.47;101688.00;5003001;28;20026;-92
2023/10/30 06:28:22;;;;;;;0.20;0.20;;;;;;;11.76;75.48;101697.78;4995414;28;20034;-90
2023/10/30 06:30:47;;;;;;;0.20;0.20;;;;;;;11.62;74.93;101657.75;4985935;28;20026;-90
2023/10/30 06:33:12;;;;;;;0.20;0.20;;;;;;;11.96;74.96;101697.06;5009726;28;20037;-87
2023/10/30 06:35:38;;;;;;;0.20;0.20;;;;;;;12.09;74.76;101700.03;4994883;28;20034;-90
2023/10/30 06:38:03;;;;;;;0.10;0.10;;;;;;;12.07;74.48;101686.28;4976609;28;20030;-87
2023/10/30 06:40:29;;;;;;;0.10;0.10;;;;;;;12.21;74.51;101709.13;4986335;28;20058;-90
2023/10/30 06:42:54;;;;;;;0.10;0.10;;;;;;;12.29;74.42;101710.53;4995456;28;20030;-89
2023/10/30 06:45:20;;;;;;;0.20;0.20;;;;;;;12.39;73.89;101707.53;4963225;28;20030;-86
2023/10/30 06:47:45;;;;;;;0.20;0.20;;;;;;;12.53;73.15;101715.66;5003419;28;20025;-86
2023/10/30 06:50:11;;;;;;;0.20;0.20;;;;;;;12.45;72.77;101702.13;4993987;28;20499;-88
2023/10/30 06:52:36;;;;;;;0.20;0.20;;;;;;;12.56;72.97;101723.31;4977638;28;20034;-87
2023/10/30 06:55:02;;;;;;;0.10;0.10;;;;;;;12.61;72.36;101709.25;4983810;28;20033;-93
2023/10/30 06:57:28;;;;;;;0.10;0.10;;;;;;;12.57;73.27;101701.63;4982313;28;20021;-89
2023/10/30 06:59:55;;;;;;;0.10;0.10;;;;;;;12.64;73.78;101716.06;4970380;28;20036;-91
2023/10/30 07:02:21;;;;;;;0.10;0.10;;;;;;;12.66;73.77;101710.81;4976040;28;20033;-87
2023/10/30 07:04:46;;;;;;;0.10;0.10;;;;;;;12.80;73.37;101717.16;4977205;28;20527;-89
2023/10/30 07:07:11;;;;;;;0.10;0.10;;;;;;;12.83;73.09;101709.22;5008783;28;20088;-86
2023/10/30 07:09:37;;;;;;;0.20;0.20;;;;;;;12.84;72.51;101703.13;4988902;28;20054;-87
2023/10/30 07:12:03;;;;;;;0.10;0.10;;;;;;;12.91;71.71;101717.53;4992094;28;20034;-90
2023/10/30 07:14:28;;;;;;;0.10;0.10;;;;;;;13.00;72.07;101715.47;4964328;28;20029;-86
2023/10/30 07:16:54;;;;;;;0.10;0.10;;;;;;;13.07;72.50;101712.53;4992208;28;20030;-92
2023/10/30 07:19:22;;;;;;;0.10;0.10;;;;;;;12.98;72.33;101681.78;4975731;28;20050;-85
2023/10/30 07:21:47;;;;;;;0.20;0.20;;;;;;;13.02;72.53;101698.91;5008868;28;20025;-84
2023/10/30 07:24:13;;;;;;;0.20;0.20;;;;;;;13.29;72.07;101702.13;4974620;28;20030;-85
2023/10/30 07:26:38;;;;;;;0.20;0.20;;;;;;;13.39;72.34;101702.56;4993795;28;20465;-85
2023/10/30 07:29:04;;;;;;;0.20;0.20;;;;;;;13.32;71.75;101670.81;5003655;28;20030;-86
2023/10/30 07:31:30;;;;;;;0.20;0.20;;;;;;;13.53;71.11;101702.81;5007861;28;20046;-91
2023/10/30 07:33:55;;;;;;;0.10;0.10;;;;;;;13.67;71.04;101702.22;4996238;28;20483;-89
2023/10/30 07:36:21;;;;;;;0.10;0.10;;;;;;;13.60;71.02;101680.81;4980327;28;20053;-90
2023/10/30 07:38:48;;;;;;;0.10;0.10;;;;;;;13.84;70.84;101712.69;4995760;28;20129;-90
2023/10/30 07:41:13;;;;;;;0.10;0.10;;;;;;;13.90;70.63;101704.59;5015813;28;20457;-92
2023/10/30 07:43:39;;;;;;;0.10;0.10;;;;;;;13.92;70.52;101696.72;4993069;28;20049;-90
2023/10/30 07:46:05;;;;;;;0.10;0.10;;;;;;;13.92;69.91;101697.56;4986062;28;20033;-90
2023/10/30 07:48:31;;;;;;;0.10;0.10;;;;;;;14.09;70.74;101703.75;4979360;28;20034;-92
2023/10/30 07:51:01;;;;;;;0.10;0.10;;;;;;;14.09;70.16;101695.97;4998814;28;20038;-93
2023/10/30 07:53:26;;;;;;;0.10;0.10;;;;;;;14.23;70.01;101704.78;4998041;28;20030;-93
2023/10/30 07:55:53;;;;;;;0.10;0.10;;;;;;;14.26;69.03;101689.06;4988442;28;20397;-90
2023/10/30 07:58:19;;;;;;;0.10;0.10;;;;;;;14.30;69.61;101702.75;4996296;28;20041;-92
2023/10/30 08:00:44;;;;;;;0.20;0.20;;;;;;;14.40;69.27;101692.75;4980138;28;20088;-86
2023/10/30 08:03:10;;;;;;;0.20;0.20;;;;;;;14.59;68.98;101704.84;4978449;28;20116;-89
2023/10/30 08:05:36;;;;;;;0.10;0.10;;;;;;;14.63;70.61;101705.53;5013080;28;20025;-90
2023/10/30 08:08:02;;;;;;;0.10;0.10;;;;;;;14.57;71.04;101701.47;4994889;28;20113;-83
2023/10/30 08:10:27;;;;;;;0.10;0.10;;;;;;;14.63;71.06;101698.56;5001224;28;20145;-89
2023/10/30 08:12:53;;;;;;;0.10;0.10;;;;;;;14.73;70.85;101705.91;4976301;28;20033;-87
2023/10/30 08:15:19;;;;;;;0.20;0.20;;;;;;;14.74;70.81;101705.00;4994283;28;20054;-89
2023/10/30 08:17:45;;;;;;;0.20;0.20;;;;;;;14.67;70.18;101694.06;5001423;28;20040;-91
2023/10/30 08:20:11;;;;;;;0.20;0.20;;;;;;;14.73;70.21;101698.94;5016374;28;20053;-88
2023/10/30 08:22:41;;;;;;;0.10;0.10;;;;;;;14.64;71.47;101684.59;4990871;28;20025;-93
2023/10/30 08:25:09;;;;;;;0.10;0.10;;;;;;;14.81;71.45;101693.38;5008098;28;20038;-94
2023/10/30 08:27:36;;;;;;;0.10;0.10;;;;;;;14.93;71.17;101705.78;5003935;28;20033;-87
2023/10/30 08:30:02;;;;;;;0.10;0.10;;;;;;;15.13;70.56;101705.59;4996077;28;20037;-87
2023/10/30 08:32:28;;;;;;;0.10;0.10;;;;;;;15.11;70.77;101696.19;4987979;28;20037;-86
2023/10/30 08:34:56;;;;;;;0.20;0.20;;;;;;;15.16;70.44;101684.63;4997641;28;20032;-86
2023/10/30 08:37:22;;;;;;;0.10;0.10;;;;;;;15.33;70.43;101685.50;5021977;28;20041;-93
2023/10/30 08:39:48;;;;;;;0.20;0.20;;;;;;;15.58;69.25;101691.13;5018856;28;20034;-88
2023/10/30 08:42:14;;;;;;;0.10;0.10;;;;;;;15.55;69.99;101686.09;4984013;28;20057;-90
2023/10/30 08:44:40;;;;;;;0.10;0.10;;;;;;;15.60;68.92;101684.09;5013838;28;20092;-90
2023/10/30 08:47:06;;;;;;;0.10;0.10;;;;;;;15.68;69.42;101692.34;4978000;28;20492;-90
2023/10/30 08:49:32;;;;;;;0.20;0.20;;;;;;;15.85;68.82;101693.22;4996134;28;20407;-91
2023/10/30 08:51:58;;;;;;;0.10;0.10;;;;;;;15.76;68.53;101679.75;4978447;28;20033;-86
2023/10/30 08:54:23;;;;;;;0.10;0.10;;;;;;;15.91;68.34;101683.28;4996194;28;20029;-88
2023/10/30 08:56:49;;;;;;;0.20;0.20;;;;;;;16.05;67.92;101688.59;5018075;28;20038;-92
2023/10/30 08:59:14;;;;;;;0.10;0.10;;;;;;;16.17;67.52;101687.06;4979052;28;20037;-92
2023/10/30 09:01:40;;;;;;;0.20;0.20;;;;;;;16.31;66.72;101681.06;5016200;28;20030;-89
2023/10/30 09:04:06;;;;;;;0.20;0.20;;;;;;;16.42;66.57;101678.72;4982470;28;20044;-91
2023/10/30 09:06:32;;;;;;;0.20;0.20;;;;;;;16.42;66.12;101663.06;4979485;28;20026;-86
2023/10/30 09:08:57;;;;;;;0.10;0.10;;;;;;;16.52;66.32;101672.03;5008836;28;20488;-89
2023/10/30 09:11:23;;;;;;;0.20;0.20;;;;;;;16.57;65.60;101662.16;5000792;28;20033;-91
2023/10/30 09:13:49;;;;;;;0.10;0.10;;;;;;;16.79;64.89;101666.16;4969895;28;20054;-90
2023/10/30 09:16:14;;;;;;;0.20;0.20;;;;;;;16.82;64.67;101668.63;4981362;28;20029;-88
2023/10/30 09:18:40;;;;;;;0.10;0.10;;;;;;;16.95;64.39;101660.88;4976249;28;20457;-90
2023/10/30 09:21:05;;;;;;;0.10;0.10;;;;;;;17.13;63.69;101670.25;4991676;28;20494;-93
2023/10/30 09:23:31;;;;;;;0.20;0.20;;;;;;;17.09;63.82;101658.28;4980227;28;20026;-93
2023/10/30 09:25:56;;;;;;;0.20;0.20;;;;;;;17.28;63.43;101664.09;4991485;28;20029;-88
2023/10/30 09:28:22;;;;;;;0.10;0.10;;;;;;;17.51;63.04;101664.47;5013268;28;20053;-92
2023/10/30 09:30:48;;;;;;;0.10;0.10;;;;;;;17.62;62.18;101662.03;5011858;28;20823;-91
2023/10/30 09:33:14;;;;;;;0.10;0.10;;;;;;;17.52;61.60;101656.53;5001982;28;20036;-93
2023/10/30 09:35:42;;;;;;;0.10;0.10;;;;;;;17.67;62.60;101654.72;5009304;28;20017;-91
2023/10/30 09:38:07;;;;;;;0.20;0.20;;;;;;;17.88;61.50;101660.44;4994910;28;20013;-96
2023/10/30 09:40:33;;;;;;;0.10;0.10;;;;;;;17.93;60.50;101661.81;4987759;28;20040;-93
2023/10/30 09:42:59;;;;;;;0.10;0.10;;;;;;;17.98;60.90;101664.97;4996436;28;20022;-94
2023/10/30 09:45:26;;;;;;;0.10;0.10;;;;;;;18.09;60.23;101652.97;4979655;28;20041;-89
2023/10/30 09:47:52;;;;;;;0.20;0.20;;;;;;;18.20;59.67;101648.75;4974576;28;20168;-91
2023/10/30 09:50:21;;;;;;;0.20;0.20;;;;;;;18.31;59.54;101651.50;5003433;28;20534;-93
2023/10/30 09:52:53;;;;;;;0.10;0.10;;;;;;;18.19;59.65;101620.03;4961423;28;20072;-87
2023/10/30 09:55:19;;;;;;;0.10;0.10;;;;;;;18.53;59.60;101645.69;4979060;28;20026;-88
2023/10/30 09:57:51;;;;;;;0.10;0.10;;;;;;;18.60;59.26;101638.28;4994875;28;20057;-94
2023/10/30 10:00:17;;;;;;;0.10;0.10;;;;;;;18.54;58.24;101631.66;4977853;28;20190;-92
2023/10/30 10:02:43;;;;;;;0.10;0.10;;;;;;;18.53;58.66;101629.13;4970715;28;20065;-93
2023/10/30 10:05:12;;;;;;;0.10;0.10;;;;;;;18.58;59.18;101622.66;5000905;28;20048;-94
2023/10/30 10:07:38;;;;;;;0.20;0.20;;;;;;;18.82;58.64;101630.69;4979116;28;20028;-89
2023/10/30 10:10:05;;;;;;;0.10;0.10;;;;;;;18.85;56.91;101617.34;4992999;28;20026;-94
2023/10/30 10:12:31;;;;;;;0.20;0.20;;;;;;;18.75;58.14;101612.84;4999082;28;20057;-93
2023/10/30 10:14:57;;;;;;;0.10;0.10;;;;;;;18.82;57.81;101614.13;4977595;28;20491;-93
2023/10/30 10:17:23;;;;;;;0.20;0.20;;;;;;;18.94;57.47;101613.28;4949028;28;20434;-90
2023/10/30 10:19:48;;;;;;;0.20;0.20;;;;;;;18.84;57.61;101581.59;4993187;28;20034;-90
2023/10/30 10:22:30;;;;;;;0.20;0.20;;;;;;;19.09;58.01;101607.00;4991219;28;20034;-91
2023/10/30 10:24:56;;;;;;;0.20;0.20;;;;;;;19.14;57.37;101596.16;4974397;28;20543;-87
2023/10/30 10:27:25;;;;;;;0.10;0.10;;;;;;;19.13;57.54;101586.63;4977723;28;20029;-93
2023/10/30 10:29:54;;;;;;;0.20;0.20;;;;;;;19.23;56.73;101592.06;5072912;23;20057;-90
2023/10/30 10:32:25;;;;;;;0.20;0.20;;;;;;;19.24;57.16;101589.31;5022209;28;20041;-85
2023/10/30 10:34:51;;;;;;;0.10;0.10;;;;;;;19.30;57.09;101590.69;5023648;28;20108;-89
2023/10/30 10:37:19;;;;;;;0.10;0.10;;;;;;;19.40;56.76;101594.34;4997787;28;20044;-93
2023/10/30 10:39:49;;;;;;;0.10;0.10;;;;;;;19.36;56.32;101587.63;5025551;28;20063;-92
2023/10/30 10:42:19;;;;;;;0.20;0.20;;;;;;;19.47;56.59;101585.09;4994831;28;20033;-88
2023/10/30 10:44:45;;;;;;;0.20;0.20;;;;;;;19.51;56.09;101581.28;5004749;28;20029;-88
2023/10/30 10:47:10;;;;;;;0.20;0.20;;;;;;;19.55;55.81;101576.66;5009623;28;20029;-89
2023/10/30 10:49:35;;;;;;;0.20;0.20;;;;;;;19.53;55.90;101568.06;5000419;28;20026;-88
2023/10/30 10:52:02;;;;;;;0.20;0.20;;;;;;;19.67;55.61;101567.97;4997290;28;20407;-88
2023/10/30 10:54:32;;;;;;;0.20;0.20;;;;;;;19.84;55.70;101564.91;4996050;28;20041;-92
2023/10/30 10:56:57;;;;;;;0.10;0.10;;;;;;;19.79;55.50;101524.22;4974522;28;20117;-87
2023/10/30 10:59:28;;;;;;;0.10;0.10;;;;;;;20.09;54.78;101550.84;5003010;28;20045;-88
2023/10/30 11:01:55;;;;;;;0.10;0.10;;;;;;;20.13;54.42;101541.75;5003534;28;20088;-88
2023/10/30 11:04:20;;;;;;;0.17;0.17;;;;;;;20.13;53.51;101546.19;5002100;28;20038;-86
2023/10/30 11:06:48;;;;;;;0.20;0.20;;;;;;;20.26;53.83;101542.53;4998946;28;20105;-86
2023/10/30 11:09:28;;;;;;;0.20;0.20;;;;;;;20.40;53.77;101536.22;5007591;28;20037;-92
2023/10/30 11:12:10;;;;;;;0.20;0.20;;;;;;;20.48;53.44;101540.94;5012769;28;20030;-90
2023/10/30 11:14:42;;;;;;;0.10;0.10;;;;;;;20.27;52.92;101510.06;5018707;28;20025;-91
2023/10/30 11:17:07;;;;;;;0.10;0.10;;;;;;;20.41;52.86;101537.91;4988415;28;20416;-87
2023/10/30 11:19:33;;;;;;;0.10;0.10;;;;;;;20.46;51.68;101532.34;4995912;28;20098;-84